Time;durP1;ratioP1;P1;durP2;ratioP2;P2;SDS_P1;SDS_P2;PMS_P1;PMS_P2;Temp;Humidity;BMP_temperature;BMP_pressure;BME280_temperature;BME280_humidity;BME280_pressure;Samples;Min_cycle;Max_cycle;Signal;HPM_P1;HPM_P2
2021/08/11 00:01:53;;;;;;;30.00;21.95;;;;;;;16.24;75.56;100049.78;5067597;28;20352;-76
2021/08/11 00:04:21;;;;;;;27.35;19.45;;;;;;;16.22;75.48;100046.41;5066353;28;20673;-74
2021/08/11 00:06:48;;;;;;;29.77;19.33;;;;;;;16.22;75.55;100035.75;5068009;28;20064;-76
2021/08/11 00:09:15;;;;;;;33.17;21.70;;;;;;;16.21;75.56;100050.06;5067381;28;20052;-74
2021/08/11 00:11:42;;;;;;;29.80;19.17;;;;;;;16.18;75.60;100052.19;5066774;28;20048;-73
2021/08/11 00:14:09;;;;;;;32.65;22.33;;;;;;;16.18;75.62;100055.69;5067922;28;20055;-71
2021/08/11 00:16:37;;;;;;;29.50;20.63;;;;;;;16.17;75.64;100059.38;5067207;28;20430;-72
2021/08/11 00:19:04;;;;;;;29.38;19.88;;;;;;;16.16;75.57;100055.00;5066992;28;20044;-74
2021/08/11 00:21:31;;;;;;;28.13;19.65;;;;;;;16.15;75.58;100061.34;5065641;28;20048;-72
2021/08/11 00:23:58;;;;;;;30.48;19.95;;;;;;;16.14;75.62;100058.81;5067179;28;20044;-73
2021/08/11 00:26:25;;;;;;;30.98;20.23;;;;;;;16.13;75.53;100062.47;5066878;28;20052;-74
2021/08/11 00:28:52;;;;;;;30.27;20.95;;;;;;;16.12;75.60;100050.97;5067076;28;20056;-76
2021/08/11 00:31:19;;;;;;;28.67;19.63;;;;;;;16.12;75.60;100050.97;5066314;28;20052;-74
2021/08/11 00:33:47;;;;;;;28.30;20.13;;;;;;;16.12;75.68;100058.16;5067266;28;20448;-74
2021/08/11 00:36:14;;;;;;;29.58;20.75;;;;;;;16.09;75.71;100053.94;5066762;28;20048;-75
2021/08/11 00:38:41;;;;;;;33.50;21.95;;;;;;;16.09;75.49;100055.78;5066918;28;20131;-76
2021/08/11 00:41:08;;;;;;;29.52;19.25;;;;;;;16.08;75.56;100049.63;5066229;28;20044;-75
2021/08/11 00:43:35;;;;;;;30.45;20.45;;;;;;;16.04;75.55;100049.09;5066701;28;20048;-75
2021/08/11 00:46:02;;;;;;;26.85;18.92;;;;;;;16.03;75.57;100054.56;5065369;28;20143;-73
2021/08/11 00:48:29;;;;;;;34.70;20.23;;;;;;;15.99;75.47;100055.84;5068289;28;20041;-75
2021/08/11 00:50:58;;;;;;;25.90;19.55;;;;;;;15.96;75.50;100050.81;5065357;28;20067;-74
2021/08/11 00:53:27;;;;;;;29.45;20.50;;;;;;;15.96;75.55;100053.50;5065815;28;20442;-73
2021/08/11 00:55:57;;;;;;;29.80;19.60;;;;;;;15.96;75.57;100056.16;5065617;28;20476;-74
2021/08/11 00:58:25;;;;;;;27.20;18.25;;;;;;;15.95;75.51;100052.63;5065752;28;20048;-72
2021/08/11 01:00:54;;;;;;;29.42;20.63;;;;;;;15.93;75.57;100046.63;5065129;28;20044;-73
2021/08/11 01:03:23;;;;;;;30.73;19.15;;;;;;;15.92;75.61;100044.97;5065489;28;20480;-73
2021/08/11 01:05:51;;;;;;;28.00;19.88;;;;;;;15.89;75.51;100045.25;5066381;28;20049;-73
2021/08/11 01:08:22;;;;;;;28.33;19.10;;;;;;;15.90;75.54;100051.41;5065012;28;20055;-72
2021/08/11 01:10:51;;;;;;;27.23;19.08;;;;;;;15.90;75.52;100057.59;5065493;28;20626;-73
2021/08/11 01:13:18;;;;;;;30.55;20.02;;;;;;;15.88;75.71;100059.56;5066218;28;20040;-75
2021/08/11 01:15:46;;;;;;;25.30;18.23;;;;;;;15.86;75.50;100062.38;5065366;28;20055;-74
2021/08/11 01:18:14;;;;;;;26.33;17.98;;;;;;;15.83;75.50;100057.34;5066088;28;20123;-73
2021/08/11 01:20:47;;;;;;;27.45;18.10;;;;;;;15.81;75.49;100051.34;5064192;28;20052;-75
2021/08/11 01:23:16;;;;;;;26.38;18.08;;;;;;;15.79;75.45;100063.97;5064629;28;20053;-74
2021/08/11 01:25:47;;;;;;;29.23;18.15;;;;;;;15.77;75.49;100065.97;5066135;28;20055;-75
2021/08/11 01:28:42;;;;;;;26.10;17.75;;;;;;;15.77;75.52;100063.28;5065767;28;20045;-75
2021/08/11 01:31:14;;;;;;;28.60;18.65;;;;;;;15.74;75.41;100058.25;5064968;28;20051;-73
2021/08/11 01:33:49;;;;;;;33.10;19.02;;;;;;;15.71;75.52;100055.84;5069202;28;20056;-77
2021/08/11 01:36:24;;;;;;;31.55;18.13;;;;;;;15.71;75.40;100060.34;5069932;28;20084;-74
2021/08/11 01:39:05;;;;;;;25.73;17.45;;;;;;;15.69;75.47;100060.50;5066473;28;20063;-74
2021/08/11 01:41:36;;;;;;;33.75;20.42;;;;;;;15.65;75.42;100067.09;5066033;28;20139;-75
2021/08/11 01:44:07;;;;;;;29.02;18.45;;;;;;;15.61;75.49;100071.91;5065739;28;20052;-74
2021/08/11 01:46:39;;;;;;;29.27;18.98;;;;;;;15.59;75.56;100065.88;5067618;28;20051;-73
2021/08/11 01:49:10;;;;;;;29.90;18.92;;;;;;;15.57;75.66;100059.84;5065301;28;20049;-72
2021/08/11 01:51:39;;;;;;;26.20;18.20;;;;;;;15.56;75.68;100076.00;5063519;28;20052;-72
2021/08/11 01:54:08;;;;;;;31.70;19.08;;;;;;;15.55;75.59;100068.97;5064840;28;20040;-73
2021/08/11 01:56:38;;;;;;;27.90;18.42;;;;;;;15.52;75.55;100069.25;5064632;28;20523;-74
2021/08/11 01:59:07;;;;;;;35.40;21.13;;;;;;;15.49;75.56;100067.75;5065105;28;20085;-73
2021/08/11 02:01:37;;;;;;;29.25;18.83;;;;;;;15.49;75.56;100071.25;5065874;28;20052;-74
2021/08/11 02:04:08;;;;;;;30.17;19.85;;;;;;;15.48;75.50;100068.72;5064455;28;20586;-74
2021/08/11 02:06:36;;;;;;;30.40;18.35;;;;;;;15.46;75.50;100068.03;5065643;28;20056;-73
2021/08/11 02:09:04;;;;;;;32.60;20.52;;;;;;;15.44;75.59;100056.69;5065563;28;20044;-72
2021/08/11 02:11:37;;;;;;;31.90;19.08;;;;;;;15.44;75.61;100070.00;5064737;28;20048;-74
2021/08/11 02:14:05;;;;;;;28.35;18.45;;;;;;;15.42;75.38;100058.69;5064574;28;20048;-73
2021/08/11 02:16:32;;;;;;;29.42;18.98;;;;;;;15.40;75.54;100061.47;5065485;28;20052;-73
2021/08/11 02:18:59;;;;;;;30.65;17.75;;;;;;;15.40;75.62;100066.81;5064666;28;20146;-73
2021/08/11 02:21:27;;;;;;;29.20;18.48;;;;;;;15.38;75.57;100068.78;5063775;28;20059;-73
2021/08/11 02:23:54;;;;;;;26.23;18.35;;;;;;;15.35;75.49;100069.06;5065655;28;20048;-73
2021/08/11 02:26:28;;;;;;;31.92;19.40;;;;;;;15.35;75.56;100065.56;5062762;28;20503;-73
2021/08/11 02:29:01;;;;;;;33.53;20.20;;;;;;;15.35;75.42;100066.41;5065017;28;20107;-73
2021/08/11 02:31:40;;;;;;;30.02;16.98;;;;;;;15.33;75.51;100076.34;5064622;28;20152;-72
2021/08/11 02:34:11;;;;;;;30.92;18.63;;;;;;;15.31;75.54;100077.50;5064259;28;20044;-73
2021/08/11 02:36:53;;;;;;;23.83;18.60;;;;;;;15.31;75.57;100073.00;5065068;28;20056;-73
2021/08/11 02:39:25;;;;;;;28.80;18.98;;;;;;;15.29;75.42;100075.81;5065067;28;20561;-75
2021/08/11 02:41:56;;;;;;;29.10;18.05;;;;;;;15.26;75.49;100076.09;5064956;28;20480;-74
2021/08/11 02:44:27;;;;;;;26.73;18.08;;;;;;;15.26;75.46;100075.25;5065941;28;20049;-74
2021/08/11 02:46:57;;;;;;;31.15;18.83;;;;;;;15.23;75.47;100081.72;5070554;28;20065;-76
2021/08/11 02:49:27;;;;;;;28.55;18.80;;;;;;;15.24;75.46;100087.88;5067254;28;20054;-75
2021/08/11 02:51:58;;;;;;;28.13;18.70;;;;;;;15.21;75.52;100089.00;5064882;28;20053;-75
2021/08/11 02:54:26;;;;;;;29.38;20.27;;;;;;;15.21;75.54;100096.97;5065282;28;20044;-75
2021/08/11 02:56:54;;;;;;;30.52;19.45;;;;;;;15.21;75.76;100093.47;5066338;28;20157;-75
2021/08/11 02:59:24;;;;;;;28.48;18.77;;;;;;;15.20;75.45;100089.16;5065586;28;20049;-75
2021/08/11 03:01:51;;;;;;;31.23;18.25;;;;;;;15.20;75.61;100086.50;5064890;28;20056;-76
2021/08/11 03:04:18;;;;;;;25.48;18.40;;;;;;;15.20;75.53;100091.81;5066058;28;20078;-75
2021/08/11 03:06:46;;;;;;;29.92;19.63;;;;;;;15.19;75.67;100096.28;5066639;28;20139;-76
2021/08/11 03:09:14;;;;;;;32.47;19.92;;;;;;;15.21;75.62;100098.81;5065966;28;20041;-79
2021/08/11 03:11:41;;;;;;;25.23;16.92;;;;;;;15.20;75.58;100102.47;5066787;28;20688;-79
2021/08/11 03:14:13;;;;;;;35.40;21.27;;;;;;;15.21;75.70;100109.44;5074554;28;20074;-76
2021/08/11 03:16:40;;;;;;;35.58;20.88;;;;;;;15.23;75.69;100095.03;5069660;28;20492;-76
2021/08/11 03:19:08;;;;;;;35.50;20.15;;;;;;;15.23;75.65;100091.50;5066753;28;20040;-75
2021/08/11 03:21:35;;;;;;;30.27;19.95;;;;;;;15.27;75.65;100088.44;5068170;28;20709;-73
2021/08/11 03:24:02;;;;;;;31.55;20.55;;;;;;;15.30;75.59;100092.59;5069737;28;20055;-74
2021/08/11 03:26:31;;;;;;;31.35;20.50;;;;;;;15.31;75.53;100082.81;5071631;28;20672;-74
2021/08/11 03:29:01;;;;;;;35.92;20.38;;;;;;;15.33;75.54;100087.00;5072602;28;20055;-77
2021/08/11 03:31:28;;;;;;;32.97;20.05;;;;;;;15.37;75.56;100092.88;5069346;28;20121;-74
2021/08/11 03:33:56;;;;;;;34.88;21.02;;;;;;;15.37;75.61;100099.03;5070591;28;20537;-75
2021/08/11 03:36:23;;;;;;;33.22;20.17;;;;;;;15.40;75.47;100096.06;5069132;28;20090;-75
2021/08/11 03:38:50;;;;;;;34.72;20.63;;;;;;;15.42;75.47;100096.75;5070495;28;20059;-76
2021/08/11 03:41:18;;;;;;;37.85;21.42;;;;;;;15.45;75.57;100085.84;5070298;28;20044;-74
2021/08/11 03:43:47;;;;;;;34.05;21.45;;;;;;;15.46;75.55;100090.16;5067948;28;20094;-73
2021/08/11 03:46:14;;;;;;;41.45;21.35;;;;;;;15.52;75.50;100094.06;5068547;28;20045;-76
2021/08/11 03:48:41;;;;;;;32.58;18.92;;;;;;;15.55;75.40;100090.28;5070118;28;20410;-74
2021/08/11 03:51:08;;;;;;;29.13;19.20;;;;;;;15.58;75.40;100096.13;5066716;28;20049;-76
2021/08/11 03:53:35;;;;;;;28.15;17.48;;;;;;;15.61;75.38;100095.84;5067665;28;20056;-79
2021/08/11 03:56:02;;;;;;;30.63;19.40;;;;;;;15.64;75.32;100089.38;5068979;28;20047;-75
2021/08/11 03:58:29;;;;;;;31.80;19.75;;;;;;;15.70;75.24;100095.94;5067776;28;20052;-75
2021/08/11 04:00:57;;;;;;;33.88;19.40;;;;;;;15.73;75.28;100099.13;5068582;28;20040;-76
2021/08/11 04:03:24;;;;;;;27.48;17.40;;;;;;;15.77;75.17;100100.56;5067945;28;20056;-76
2021/08/11 04:05:52;;;;;;;29.52;19.50;;;;;;;15.82;74.99;100103.59;5067768;28;20273;-75
2021/08/11 04:08:19;;;;;;;32.22;18.17;;;;;;;15.85;75.11;100095.31;5068101;28;20057;-74
2021/08/11 04:10:46;;;;;;;28.20;18.20;;;;;;;15.87;74.94;100087.19;5067546;28;20052;-75
2021/08/11 04:13:16;;;;;;;27.05;17.38;;;;;;;15.94;74.90;100090.94;5066986;28;20044;-76
2021/08/11 04:15:43;;;;;;;29.52;18.08;;;;;;;16.03;74.81;100090.03;5067917;28;20044;-77
2021/08/11 04:18:12;;;;;;;25.67;17.90;;;;;;;16.10;74.85;100090.25;5068213;28;20094;-77
2021/08/11 04:20:40;;;;;;;24.65;16.17;;;;;;;16.14;74.63;100096.97;5066747;28;20059;-74
2021/08/11 04:23:07;;;;;;;24.92;15.65;;;;;;;16.18;74.69;100100.16;5068792;28;20055;-75
2021/08/11 04:25:36;;;;;;;24.70;17.27;;;;;;;16.26;74.88;100105.59;5069742;28;20253;-76
2021/08/11 04:28:04;;;;;;;27.48;16.00;;;;;;;16.79;74.40;100109.19;5070068;28;20054;-75
2021/08/11 04:30:31;;;;;;;21.08;14.32;;;;;;;17.65;72.66;100108.41;5069791;28;20064;-77
2021/08/11 04:32:58;;;;;;;19.80;14.15;;;;;;;18.57;70.62;100094.25;5072657;28;20040;-75
2021/08/11 04:35:27;;;;;;;18.02;12.20;;;;;;;19.34;68.85;100112.56;5076566;28;20048;-75
2021/08/11 04:37:54;;;;;;;14.85;9.57;;;;;;;20.07;66.96;100108.75;5077235;28;20048;-75
2021/08/11 04:40:21;;;;;;;11.23;8.63;;;;;;;20.67;65.20;100109.91;5079070;28;20123;-74
2021/08/11 04:42:49;;;;;;;13.70;9.57;;;;;;;21.19;64.33;100098.31;5076015;28;20416;-78
2021/08/11 04:45:16;;;;;;;11.88;8.13;;;;;;;21.74;62.52;100096.19;5054150;28;20067;-74
2021/08/11 04:47:43;;;;;;;11.38;8.43;;;;;;;22.39;61.11;100103.53;5075827;28;20059;-77
2021/08/11 04:50:11;;;;;;;14.10;8.45;;;;;;;23.01;59.21;100104.66;5072153;28;20048;-75
2021/08/11 04:52:40;;;;;;;9.15;7.93;;;;;;;23.53;57.67;100113.31;5070480;28;20056;-80
2021/08/11 04:55:09;;;;;;;10.15;8.43;;;;;;;23.99;55.88;100110.84;5055540;28;20330;-86
2021/08/11 04:57:36;;;;;;;9.48;6.97;;;;;;;24.48;55.21;100116.16;5069489;28;20577;-77
2021/08/11 05:00:04;;;;;;;11.27;9.25;;;;;;;24.74;53.94;100116.19;5069093;28;20041;-79
2021/08/11 05:02:32;;;;;;;13.88;8.18;;;;;;;24.84;53.33;100104.97;5069121;28;20047;-79
2021/08/11 05:04:59;;;;;;;12.43;9.27;;;;;;;25.00;53.00;100118.03;5070620;28;20063;-75
2021/08/11 05:07:26;;;;;;;9.93;7.50;;;;;;;25.24;52.54;100113.06;5067802;28;20079;-75
2021/08/11 05:09:55;;;;;;;9.88;7.10;;;;;;;25.22;52.83;100112.41;5068295;28;20041;-78
2021/08/11 05:12:23;;;;;;;8.82;7.00;;;;;;;24.74;53.48;100108.09;5067995;28;20057;-77
2021/08/11 05:14:51;;;;;;;10.70;6.72;;;;;;;24.28;54.43;100126.91;5067781;28;20041;-73
2021/08/11 05:17:21;;;;;;;9.70;6.93;;;;;;;23.42;56.22;100123.63;5065984;28;20055;-75
2021/08/11 05:19:48;;;;;;;13.07;9.60;;;;;;;22.58;57.45;100119.06;5067627;28;20511;-77
2021/08/11 05:22:15;;;;;;;8.73;7.35;;;;;;;21.78;59.40;100120.84;5065412;28;20071;-77
2021/08/11 05:24:42;;;;;;;15.88;7.63;;;;;;;21.33;60.47;100120.00;5066538;28;20044;-75
2021/08/11 05:27:10;;;;;;;9.25;7.07;;;;;;;21.02;61.57;100120.97;5066564;28;20055;-76
2021/08/11 05:29:39;;;;;;;9.10;6.65;;;;;;;21.21;61.12;100122.28;5067321;28;20183;-72
2021/08/11 05:32:07;;;;;;;10.27;6.35;;;;;;;21.41;60.83;100119.06;5071272;28;20040;-78
2021/08/11 05:34:34;;;;;;;10.07;7.85;;;;;;;22.13;59.53;100119.19;5075019;28;20135;-77
2021/08/11 05:37:01;;;;;;;10.13;7.43;;;;;;;23.28;57.06;100120.03;5081383;28;20048;-74
2021/08/11 05:39:28;;;;;;;13.63;8.23;;;;;;;24.26;55.01;100112.78;5072257;28;20062;-74
2021/08/11 05:41:55;;;;;;;9.23;7.90;;;;;;;24.78;54.55;100111.22;5076743;28;20557;-74
2021/08/11 05:44:24;;;;;;;7.97;6.38;;;;;;;24.51;54.44;100107.66;5066719;28;20653;-77
2021/08/11 05:46:51;;;;;;;12.10;7.97;;;;;;;23.93;55.29;100110.81;5065978;28;20108;-75
2021/08/11 05:49:17;;;;;;;9.38;7.10;;;;;;;23.12;56.81;100117.66;5069323;28;20056;-77
2021/08/11 05:51:45;;;;;;;10.50;7.30;;;;;;;22.36;58.08;100114.69;5068006;28;20052;-76
2021/08/11 05:54:12;;;;;;;11.93;7.95;;;;;;;21.72;59.62;100110.84;5075739;28;20468;-79
2021/08/11 05:56:39;;;;;;;9.73;7.22;;;;;;;21.22;61.01;100115.91;5068568;28;20230;-76
2021/08/11 05:59:06;;;;;;;8.60;6.35;;;;;;;20.91;61.79;100111.53;5067784;28;20048;-74
2021/08/11 06:01:34;;;;;;;12.98;8.25;;;;;;;20.68;62.45;100113.41;5065236;28;20056;-74
2021/08/11 06:04:01;;;;;;;10.32;7.32;;;;;;;20.58;63.03;100108.25;5066687;28;20049;-74
2021/08/11 06:06:29;;;;;;;13.15;7.38;;;;;;;20.59;63.69;100116.13;5065172;28;20488;-74
2021/08/11 06:08:57;;;;;;;9.00;6.50;;;;;;;20.58;63.77;100102.88;5065997;28;20051;-76
2021/08/11 06:11:24;;;;;;;10.40;7.50;;;;;;;20.57;64.29;100109.28;5066060;28;20080;-73
2021/08/11 06:13:51;;;;;;;8.77;7.20;;;;;;;20.60;64.17;100116.97;5064605;28;20424;-73
2021/08/11 06:16:18;;;;;;;9.32;7.82;;;;;;;20.56;64.43;100115.63;5065454;28;20055;-74
2021/08/11 06:18:46;;;;;;;10.35;7.68;;;;;;;20.36;64.48;100116.13;5065029;28;20045;-76
2021/08/11 06:21:13;;;;;;;9.95;6.57;;;;;;;20.33;64.94;100115.63;5063571;28;20483;-74
2021/08/11 06:23:40;;;;;;;10.60;8.52;;;;;;;20.32;65.55;100122.84;5067831;28;20041;-77
2021/08/11 06:26:07;;;;;;;11.40;8.02;;;;;;;20.26;65.81;100126.25;5067199;28;20044;-75
2021/08/11 06:28:34;;;;;;;10.57;7.35;;;;;;;20.27;65.51;100125.22;5068396;28;20643;-73
2021/08/11 06:31:00;;;;;;;13.40;8.45;;;;;;;20.28;65.71;100129.59;5068648;28;20048;-77
2021/08/11 06:33:27;;;;;;;13.27;8.45;;;;;;;20.27;65.57;100135.97;5068882;28;20048;-77
2021/08/11 06:35:56;;;;;;;11.57;9.02;;;;;;;20.34;65.88;100144.13;5071401;28;20052;-76
2021/08/11 06:38:22;;;;;;;11.65;8.15;;;;;;;20.42;65.92;100138.72;5072917;28;20135;-77
2021/08/11 06:40:49;;;;;;;13.98;7.57;;;;;;;20.37;65.39;100136.56;5067977;28;20498;-79
2021/08/11 06:43:17;;;;;;;11.00;8.80;;;;;;;20.29;65.72;100136.63;5064267;28;20645;-75
2021/08/11 06:45:44;;;;;;;12.05;7.90;;;;;;;20.22;65.81;100136.50;5065445;28;20072;-76
2021/08/11 06:48:12;;;;;;;13.02;7.25;;;;;;;20.28;65.64;100140.31;5063654;28;20059;-77
2021/08/11 06:50:40;;;;;;;15.52;9.38;;;;;;;20.37;65.26;100143.78;5061777;28;21131;-74
2021/08/11 06:53:09;;;;;;;11.48;9.63;;;;;;;20.39;65.46;100139.91;5064620;28;20056;-77
2021/08/11 06:55:41;;;;;;;11.25;9.77;;;;;;;20.42;64.84;100141.41;5066198;28;20447;-76
2021/08/11 06:58:07;;;;;;;13.57;9.90;;;;;;;20.43;64.52;100149.25;5066703;28;20669;-79
2021/08/11 07:00:36;;;;;;;13.05;10.02;;;;;;;20.44;65.20;100150.94;5070167;28;20485;-78
2021/08/11 07:03:03;;;;;;;11.60;8.48;;;;;;;20.62;64.60;100157.91;5068149;28;20516;-77
2021/08/11 07:05:30;;;;;;;10.07;6.57;;;;;;;20.90;64.98;100162.69;5066507;28;20388;-73
2021/08/11 07:07:57;;;;;;;10.38;7.55;;;;;;;21.17;64.25;100155.91;5066273;28;20657;-76
2021/08/11 07:10:25;;;;;;;14.30;10.27;;;;;;;21.27;62.99;100151.13;5048773;28;20472;-76
2021/08/11 07:12:53;;;;;;;11.30;8.48;;;;;;;21.18;62.19;100158.41;5063730;28;20139;-75
2021/08/11 07:15:20;;;;;;;11.85;7.55;;;;;;;21.12;61.76;100159.16;5068396;28;20139;-73
2021/08/11 07:17:51;;;;;;;10.02;8.38;;;;;;;21.17;61.05;100154.06;5071727;28;20147;-72
2021/08/11 07:20:18;;;;;;;9.43;8.05;;;;;;;21.22;61.41;100150.00;5068836;28;20498;-76
2021/08/11 07:22:45;;;;;;;9.80;7.78;;;;;;;21.31;60.69;100148.91;5067261;28;20094;-76
2021/08/11 07:25:12;;;;;;;11.23;8.30;;;;;;;21.39;60.14;100144.28;5067197;28;20056;-75
2021/08/11 07:27:41;;;;;;;8.40;6.53;;;;;;;21.47;60.17;100151.44;5066527;28;20110;-75
2021/08/11 07:30:08;;;;;;;8.98;6.18;;;;;;;21.53;60.24;100139.94;5064665;28;20664;-74
2021/08/11 07:32:35;;;;;;;9.05;6.90;;;;;;;21.55;59.73;100143.28;5065352;28;20045;-74
2021/08/11 07:35:03;;;;;;;8.70;5.47;;;;;;;21.81;60.13;100138.47;5063617;28;20040;-74
2021/08/11 07:37:30;;;;;;;8.32;6.47;;;;;;;22.13;59.19;100146.09;5064634;28;20053;-75
2021/08/11 07:39:57;;;;;;;8.50;6.10;;;;;;;22.09;57.33;100144.81;5064836;28;20041;-74
2021/08/11 07:42:24;;;;;;;8.20;5.88;;;;;;;22.22;57.68;100144.13;5064543;28;20218;-74
2021/08/11 07:44:52;;;;;;;11.00;6.45;;;;;;;22.29;57.46;100134.28;5064903;28;20052;-73
2021/08/11 07:47:19;;;;;;;8.30;6.13;;;;;;;22.33;57.45;100146.34;5064030;28;20075;-75
2021/08/11 07:49:46;;;;;;;11.77;6.07;;;;;;;22.58;56.81;100145.97;5065409;28;20051;-76
2021/08/11 07:52:13;;;;;;;7.68;5.82;;;;;;;22.73;56.24;100145.91;5063170;28;20137;-73
2021/08/11 07:54:40;;;;;;;9.23;6.00;;;;;;;22.78;56.24;100142.59;5064766;28;20048;-77
2021/08/11 07:57:07;;;;;;;10.85;6.47;;;;;;;23.05;55.74;100136.44;5065604;28;20048;-74
2021/08/11 07:59:34;;;;;;;8.25;6.13;;;;;;;23.08;56.11;100137.91;5065016;28;20059;-78
2021/08/11 08:02:08;;;;;;;6.32;5.18;;;;;;;23.04;55.51;100150.94;5063726;28;20041;-76
2021/08/11 08:04:35;;;;;;;7.15;6.40;;;;;;;22.73;54.95;100142.38;5065708;28;20052;-75
2021/08/11 08:07:02;;;;;;;8.98;6.13;;;;;;;22.62;55.35;100143.72;5049810;28;20049;-76
2021/08/11 08:09:29;;;;;;;8.68;6.15;;;;;;;22.78;55.87;100138.06;5066353;28;20052;-76
2021/08/11 08:11:56;;;;;;;8.90;6.38;;;;;;;22.83;55.53;100145.56;5065986;28;20045;-75
2021/08/11 08:14:23;;;;;;;7.13;6.03;;;;;;;22.70;55.73;100141.72;5067430;28;20044;-75
2021/08/11 08:16:50;;;;;;;9.13;6.65;;;;;;;22.55;56.05;100148.22;5067209;28;20128;-73
2021/08/11 08:19:18;;;;;;;8.20;6.13;;;;;;;22.57;56.52;100149.69;5066095;28;20049;-75
2021/08/11 08:21:45;;;;;;;9.75;6.68;;;;;;;22.69;56.10;100144.63;5062530;28;20049;-78
2021/08/11 08:24:13;;;;;;;9.25;7.18;;;;;;;22.86;56.03;100147.88;5063164;28;20393;-73
2021/08/11 08:26:42;;;;;;;8.95;6.97;;;;;;;22.97;55.72;100154.59;5064101;28;20048;-75
2021/08/11 08:29:09;;;;;;;9.50;6.20;;;;;;;23.02;54.73;100154.84;5067071;28;20677;-75
2021/08/11 08:31:36;;;;;;;8.93;5.68;;;;;;;23.16;53.05;100150.41;5067444;28;20041;-77
2021/08/11 08:34:03;;;;;;;8.27;5.38;;;;;;;23.11;53.50;100144.78;5063832;28;20071;-75
2021/08/11 08:36:32;;;;;;;7.13;4.95;;;;;;;23.22;53.56;100160.41;5063759;28;20055;-74
2021/08/11 08:38:59;;;;;;;7.18;5.30;;;;;;;23.44;53.89;100155.78;5063774;28;20272;-75
2021/08/11 08:41:26;;;;;;;8.25;6.68;;;;;;;23.41;53.50;100151.63;5063950;28;20467;-74
2021/08/11 08:43:53;;;;;;;8.65;5.50;;;;;;;23.47;52.93;100156.22;5068812;28;20105;-77
2021/08/11 08:46:21;;;;;;;6.40;5.65;;;;;;;23.65;52.59;100163.78;5066667;28;20055;-78
2021/08/11 08:48:49;;;;;;;9.63;7.45;;;;;;;23.55;52.37;100162.47;5064681;28;20562;-77
2021/08/11 08:51:16;;;;;;;8.77;6.47;;;;;;;23.44;53.31;100158.47;5064934;28;20063;-77
2021/08/11 08:53:45;;;;;;;6.85;4.82;;;;;;;23.62;53.78;100166.03;5064948;28;20056;-78
2021/08/11 08:56:12;;;;;;;9.27;5.45;;;;;;;23.61;53.02;100161.69;5065217;28;20048;-78
2021/08/11 08:58:41;;;;;;;6.47;5.25;;;;;;;23.21;52.43;100154.19;5064086;28;20071;-77
2021/08/11 09:01:09;;;;;;;8.43;6.22;;;;;;;22.91;53.43;100153.50;5064841;28;20048;-77
2021/08/11 09:03:36;;;;;;;8.13;5.85;;;;;;;22.94;53.22;100147.75;5063035;28;20057;-77
2021/08/11 09:06:03;;;;;;;7.30;6.18;;;;;;;23.11;53.28;100145.59;5044678;28;20490;-76
2021/08/11 09:08:30;;;;;;;9.27;5.85;;;;;;;23.24;52.70;100145.69;5064156;28;20060;-75
2021/08/11 09:10:59;;;;;;;8.32;5.18;;;;;;;23.37;50.75;100152.19;5065509;28;20052;-76
2021/08/11 09:13:26;;;;;;;6.50;4.90;;;;;;;23.47;50.72;100150.81;5068276;28;20044;-77
2021/08/11 09:15:54;;;;;;;8.88;5.38;;;;;;;23.39;50.41;100145.59;5068118;28;20051;-77
2021/08/11 09:18:23;;;;;;;9.02;4.50;;;;;;;23.54;49.72;100150.03;5066272;28;20071;-76
2021/08/11 09:20:52;;;;;;;7.43;4.88;;;;;;;23.69;48.92;100152.59;5065134;28;20617;-76
2021/08/11 09:23:34;;;;;;;7.18;4.47;;;;;;;23.79;48.81;100151.19;5066530;28;20048;-76
2021/08/11 09:26:06;;;;;;;6.63;4.10;;;;;;;23.79;47.84;100145.81;5065764;28;20525;-77
2021/08/11 09:28:34;;;;;;;6.75;4.65;;;;;;;23.62;48.66;100145.31;5064469;28;20129;-78
2021/08/11 09:31:19;;;;;;;6.43;4.05;;;;;;;23.70;49.10;100154.25;5066262;28;20063;-77
2021/08/11 09:33:51;;;;;;;8.98;5.13;;;;;;;24.09;48.98;100142.81;5065484;28;20044;-78
2021/08/11 09:36:18;;;;;;;5.90;4.63;;;;;;;24.21;48.50;100149.31;5076314;28;20045;-77
2021/08/11 09:38:55;;;;;;;6.25;4.78;;;;;;;24.24;48.25;100148.91;5081516;28;20063;-76
2021/08/11 09:41:25;;;;;;;6.97;4.82;;;;;;;24.01;48.82;100153.81;5069493;28;20180;-77
2021/08/11 09:44:04;;;;;;;5.50;4.18;;;;;;;23.94;47.90;100151.09;5067909;28;20067;-74
2021/08/11 09:46:32;;;;;;;7.55;4.40;;;;;;;23.90;46.39;100149.81;5069970;28;20067;-77
2021/08/11 09:48:59;;;;;;;7.85;4.10;;;;;;;23.94;46.90;100152.97;5070638;28;20052;-79
2021/08/11 09:51:29;;;;;;;4.90;2.97;;;;;;;24.04;46.01;100153.41;5074223;28;20048;-79
2021/08/11 09:53:56;;;;;;;4.35;3.30;;;;;;;24.04;45.65;100148.03;5061618;28;20556;-81
2021/08/11 09:56:33;;;;;;;5.93;2.92;;;;;;;24.09;45.01;100153.63;5072869;28;20108;-76
2021/08/11 09:59:05;;;;;;;5.10;3.50;;;;;;;24.27;44.83;100157.63;5074662;28;20101;-76
2021/08/11 10:01:32;;;;;;;4.45;2.90;;;;;;;24.10;45.34;100158.00;5077874;28;20040;-80
2021/08/11 10:04:01;;;;;;;3.65;2.72;;;;;;;24.19;45.19;100158.66;5077241;28;20128;-77
2021/08/11 10:06:32;;;;;;;5.97;2.80;;;;;;;24.20;45.21;100160.28;5080955;28;20131;-78
2021/08/11 10:09:12;;;;;;;3.97;2.70;;;;;;;24.16;44.23;100173.34;5079475;28;20078;-78
2021/08/11 10:11:43;;;;;;;4.18;2.90;;;;;;;24.41;44.60;100170.13;5077281;28;20071;-77
2021/08/11 10:14:11;;;;;;;6.40;3.00;;;;;;;24.96;43.28;100168.16;5070125;28;20163;-77
2021/08/11 10:16:39;;;;;;;5.30;3.20;;;;;;;24.85;43.66;100166.06;5074818;28;20098;-78
2021/08/11 10:19:07;;;;;;;4.03;3.03;;;;;;;24.47;43.99;100174.72;5072895;28;20048;-78
2021/08/11 10:21:36;;;;;;;4.65;3.67;;;;;;;24.28;44.62;100164.69;5066975;28;20086;-77
2021/08/11 10:24:06;;;;;;;4.18;3.15;;;;;;;23.93;45.46;100172.84;5067271;28;20094;-79
2021/08/11 10:26:33;;;;;;;4.55;3.08;;;;;;;23.79;45.20;100177.34;5066963;28;20048;-77
2021/08/11 10:29:02;;;;;;;4.47;2.90;;;;;;;23.87;44.66;100173.69;5070145;28;20606;-78
2021/08/11 10:31:31;;;;;;;4.35;2.58;;;;;;;23.89;44.42;100179.69;5072038;28;20507;-78
2021/08/11 10:34:01;;;;;;;4.28;3.22;;;;;;;24.20;43.63;100173.78;5069384;28;20072;-80
2021/08/11 10:36:29;;;;;;;4.40;2.85;;;;;;;24.72;43.25;100166.03;5068613;28;20135;-79
2021/08/11 10:38:58;;;;;;;3.80;2.50;;;;;;;25.26;41.16;100159.63;5069416;28;20415;-78
2021/08/11 10:41:29;;;;;;;4.35;2.65;;;;;;;25.28;40.78;100165.69;5069146;28;20445;-78
2021/08/11 10:43:57;;;;;;;4.32;2.97;;;;;;;25.12;41.09;100161.50;5068982;28;20041;-78
2021/08/11 10:46:32;;;;;;;3.95;1.98;;;;;;;25.10;41.81;100179.78;5068630;28;20053;-77
2021/08/11 10:49:04;;;;;;;4.00;2.83;;;;;;;25.03;41.46;100170.00;5067410;28;20131;-79
2021/08/11 10:51:39;;;;;;;5.63;2.45;;;;;;;25.16;42.08;100170.84;5066054;28;20048;-77
2021/08/11 10:54:08;;;;;;;2.67;1.90;;;;;;;25.28;39.84;100160.28;5066418;28;20058;-78
2021/08/11 10:56:43;;;;;;;2.40;1.90;;;;;;;25.21;39.32;100154.00;5065892;28;20049;-81
2021/08/11 10:59:44;;;;;;;4.10;2.35;;;;;;;24.95;39.91;100166.47;5065251;28;20455;-78
2021/08/11 11:02:47;;;;;;;2.92;1.98;;;;;;;24.60;40.53;100169.38;5066078;28;20585;-75
2021/08/11 11:06:06;;;;;;;2.97;2.28;;;;;;;24.46;41.90;100178.44;5065815;28;20110;-79
2021/08/11 11:08:34;;;;;;;4.05;2.42;;;;;;;24.40;41.81;100174.69;5066259;28;20132;-77
2021/08/11 11:11:33;;;;;;;3.92;2.13;;;;;;;24.64;40.58;100174.38;5065335;28;20045;-78
2021/08/11 11:14:00;;;;;;;2.85;2.22;;;;;;;24.74;40.16;100166.66;5064675;28;20114;-77
2021/08/11 11:17:02;;;;;;;2.97;2.25;;;;;;;24.85;39.54;100160.66;5065763;28;20040;-78
2021/08/11 11:19:31;;;;;;;3.63;2.47;;;;;;;24.95;40.64;100168.34;5073776;28;20353;-77
2021/08/11 11:21:58;;;;;;;3.72;3.00;;;;;;;25.08;39.94;100171.03;5064000;28;20055;-79
2021/08/11 11:24:50;;;;;;;4.75;2.55;;;;;;;24.97;40.15;100163.56;5065496;28;20223;-81
2021/08/11 11:27:53;;;;;;;2.83;2.40;;;;;;;24.74;40.86;100161.25;5065784;28;20116;-78